sensor_id;sensor_type;location;lat;lon;timestamp;P1;durP1;ratioP1;P2;durP2;ratioP2
13552;SDS011;6847;48.830;9.116;2023-08-21T00:02:26;0.20;;;0.20;;
13552;SDS011;6847;48.830;9.116;2023-08-21T00:04:58;0.10;;;0.10;;
13552;SDS011;6847;48.830;9.116;2023-08-21T00:07:32;0.15;;;0.15;;
13552;SDS011;6847;48.830;9.116;2023-08-21T00:10:03;0.13;;;0.13;;
13552;SDS011;6847;48.830;9.116;2023-08-21T00:12:47;0.10;;;0.10;;
13552;SDS011;6847;48.830;9.116;2023-08-21T00:15:16;0.10;;;0.10;;
13552;SDS011;6847;48.830;9.116;2023-08-21T00:17:54;0.15;;;0.15;;
13552;SDS011;6847;48.830;9.116;2023-08-21T00:20:21;0.10;;;0.10;;
13552;SDS011;6847;48.830;9.116;2023-08-21T00:22:51;0.20;;;0.20;;
13552;SDS011;6847;48.830;9.116;2023-08-21T00:25:18;0.20;;;0.20;;
13552;SDS011;6847;48.830;9.116;2023-08-21T00:27:44;0.10;;;0.10;;
13552;SDS011;6847;48.830;9.116;2023-08-21T00:30:13;0.10;;;0.10;;
13552;SDS011;6847;48.830;9.116;2023-08-21T00:32:43;0.10;;;0.10;;
13552;SDS011;6847;48.830;9.116;2023-08-21T00:35:14;0.10;;;0.10;;
13552;SDS011;6847;48.830;9.116;2023-08-21T00:37:40;0.20;;;0.20;;
13552;SDS011;6847;48.830;9.116;2023-08-21T00:40:08;0.10;;;0.10;;
13552;SDS011;6847;48.830;9.116;2023-08-21T00:42:37;0.20;;;0.20;;
13552;SDS011;6847;48.830;9.116;2023-08-21T00:45:07;0.10;;;0.10;;
13552;SDS011;6847;48.830;9.116;2023-08-21T00:47:40;0.10;;;0.10;;
13552;SDS011;6847;48.830;9.116;2023-08-21T00:50:09;0.10;;;0.10;;
13552;SDS011;6847;48.830;9.116;2023-08-21T00:52:42;0.10;;;0.10;;
13552;SDS011;6847;48.830;9.116;2023-08-21T00:55:10;0.10;;;0.10;;
13552;SDS011;6847;48.830;9.116;2023-08-21T00:57:39;0.10;;;0.10;;
13552;SDS011;6847;48.830;9.116;2023-08-21T01:00:07;0.10;;;0.10;;
13552;SDS011;6847;48.830;9.116;2023-08-21T01:02:36;0.20;;;0.20;;
13552;SDS011;6847;48.830;9.116;2023-08-21T01:05:07;0.10;;;0.10;;
13552;SDS011;6847;48.830;9.116;2023-08-21T01:07:36;0.20;;;0.20;;
13552;SDS011;6847;48.830;9.116;2023-08-21T01:10:08;0.10;;;0.10;;
13552;SDS011;6847;48.830;9.116;2023-08-21T01:12:44;0.17;;;0.17;;
13552;SDS011;6847;48.830;9.116;2023-08-21T01:15:17;0.15;;;0.15;;
13552;SDS011;6847;48.830;9.116;2023-08-21T01:17:44;0.15;;;0.15;;
13552;SDS011;6847;48.830;9.116;2023-08-21T01:20:15;0.10;;;0.10;;
13552;SDS011;6847;48.830;9.116;2023-08-21T01:22:47;0.10;;;0.10;;
13552;SDS011;6847;48.830;9.116;2023-08-21T01:25:16;0.10;;;0.10;;
13552;SDS011;6847;48.830;9.116;2023-08-21T01:27:44;0.10;;;0.10;;
13552;SDS011;6847;48.830;9.116;2023-08-21T01:30:14;0.10;;;0.10;;
13552;SDS011;6847;48.830;9.116;2023-08-21T01:32:45;0.10;;;0.10;;
13552;SDS011;6847;48.830;9.116;2023-08-21T01:35:18;0.10;;;0.10;;
13552;SDS011;6847;48.830;9.116;2023-08-21T01:37:46;0.17;;;0.17;;
13552;SDS011;6847;48.830;9.116;2023-08-21T01:40:21;0.20;;;0.20;;
13552;SDS011;6847;48.830;9.116;2023-08-21T01:42:48;0.10;;;0.10;;
13552;SDS011;6847;48.830;9.116;2023-08-21T01:45:15;0.10;;;0.10;;
13552;SDS011;6847;48.830;9.116;2023-08-21T01:47:47;0.10;;;0.10;;
13552;SDS011;6847;48.830;9.116;2023-08-21T01:50:13;0.10;;;0.10;;
13552;SDS011;6847;48.830;9.116;2023-08-21T01:52:43;0.10;;;0.10;;
13552;SDS011;6847;48.830;9.116;2023-08-21T01:55:09;0.10;;;0.10;;
13552;SDS011;6847;48.830;9.116;2023-08-21T01:57:40;0.10;;;0.10;;
13552;SDS011;6847;48.830;9.116;2023-08-21T02:00:09;0.15;;;0.15;;
13552;SDS011;6847;48.830;9.116;2023-08-21T02:02:38;0.10;;;0.10;;
13552;SDS011;6847;48.830;9.116;2023-08-21T02:05:04;0.10;;;0.10;;
13552;SDS011;6847;48.830;9.116;2023-08-21T02:07:32;0.10;;;0.10;;
13552;SDS011;6847;48.830;9.116;2023-08-21T02:09:58;0.10;;;0.10;;
13552;SDS011;6847;48.830;9.116;2023-08-21T02:12:25;0.10;;;0.10;;
13552;SDS011;6847;48.830;9.116;2023-08-21T02:14:53;0.10;;;0.10;;
13552;SDS011;6847;48.830;9.116;2023-08-21T02:17:20;0.10;;;0.10;;
13552;SDS011;6847;48.830;9.116;2023-08-21T02:19:52;0.10;;;0.10;;
13552;SDS011;6847;48.830;9.116;2023-08-21T02:22:19;0.20;;;0.20;;
13552;SDS011;6847;48.830;9.116;2023-08-21T02:24:46;0.10;;;0.10;;
13552;SDS011;6847;48.830;9.116;2023-08-21T02:27:15;0.10;;;0.10;;
13552;SDS011;6847;48.830;9.116;2023-08-21T02:29:42;0.10;;;0.10;;
13552;SDS011;6847;48.830;9.116;2023-08-21T02:32:13;0.10;;;0.10;;
13552;SDS011;6847;48.830;9.116;2023-08-21T02:34:43;0.10;;;0.10;;
13552;SDS011;6847;48.830;9.116;2023-08-21T02:37:09;0.10;;;0.10;;
13552;SDS011;6847;48.830;9.116;2023-08-21T02:39:36;0.10;;;0.10;;
13552;SDS011;6847;48.830;9.116;2023-08-21T02:42:05;0.20;;;0.20;;
13552;SDS011;6847;48.830;9.116;2023-08-21T02:44:34;0.10;;;0.10;;
13552;SDS011;6847;48.830;9.116;2023-08-21T02:47:01;0.10;;;0.10;;
13552;SDS011;6847;48.830;9.116;2023-08-21T02:49:32;0.10;;;0.10;;
13552;SDS011;6847;48.830;9.116;2023-08-21T02:52:07;0.10;;;0.10;;
13552;SDS011;6847;48.830;9.116;2023-08-21T02:54:44;0.10;;;0.10;;
13552;SDS011;6847;48.830;9.116;2023-08-21T02:57:10;0.10;;;0.10;;
13552;SDS011;6847;48.830;9.116;2023-08-21T03:07:28;0.10;;;0.10;;
13552;SDS011;6847;48.830;9.116;2023-08-21T03:09:55;0.10;;;0.10;;
13552;SDS011;6847;48.830;9.116;2023-08-21T03:12:27;0.10;;;0.10;;
13552;SDS011;6847;48.830;9.116;2023-08-21T03:14:55;0.10;;;0.10;;
13552;SDS011;6847;48.830;9.116;2023-08-21T03:17:22;0.10;;;0.10;;
13552;SDS011;6847;48.830;9.116;2023-08-21T03:19:50;0.10;;;0.10;;
13552;SDS011;6847;48.830;9.116;2023-08-21T03:22:16;0.10;;;0.10;;
13552;SDS011;6847;48.830;9.116;2023-08-21T03:24:47;0.10;;;0.10;;
13552;SDS011;6847;48.830;9.116;2023-08-21T03:27:14;0.10;;;0.10;;
13552;SDS011;6847;48.830;9.116;2023-08-21T03:29:41;0.10;;;0.10;;
13552;SDS011;6847;48.830;9.116;2023-08-21T03:32:13;0.10;;;0.10;;
13552;SDS011;6847;48.830;9.116;2023-08-21T03:34:42;0.10;;;0.10;;
13552;SDS011;6847;48.830;9.116;2023-08-21T03:37:11;0.10;;;0.10;;
13552;SDS011;6847;48.830;9.116;2023-08-21T03:39:40;0.10;;;0.10;;
13552;SDS011;6847;48.830;9.116;2023-08-21T03:42:09;0.10;;;0.10;;
13552;SDS011;6847;48.830;9.116;2023-08-21T03:44:37;0.10;;;0.10;;
13552;SDS011;6847;48.830;9.116;2023-08-21T03:47:06;0.10;;;0.10;;
13552;SDS011;6847;48.830;9.116;2023-08-21T03:49:34;0.10;;;0.10;;
13552;SDS011;6847;48.830;9.116;2023-08-21T03:52:04;0.10;;;0.10;;
13552;SDS011;6847;48.830;9.116;2023-08-21T03:54:46;0.10;;;0.10;;
13552;SDS011;6847;48.830;9.116;2023-08-21T03:57:15;0.10;;;0.10;;
13552;SDS011;6847;48.830;9.116;2023-08-21T03:59:44;0.10;;;0.10;;
13552;SDS011;6847;48.830;9.116;2023-08-21T04:02:10;0.10;;;0.10;;
13552;SDS011;6847;48.830;9.116;2023-08-21T04:04:43;0.10;;;0.10;;
13552;SDS011;6847;48.830;9.116;2023-08-21T04:07:13;0.15;;;0.15;;
13552;SDS011;6847;48.830;9.116;2023-08-21T04:09:40;0.10;;;0.10;;
13552;SDS011;6847;48.830;9.116;2023-08-21T04:12:08;0.10;;;0.10;;
13552;SDS011;6847;48.830;9.116;2023-08-21T04:14:42;0.10;;;0.10;;
13552;SDS011;6847;48.830;9.116;2023-08-21T04:17:11;0.20;;;0.20;;
13552;SDS011;6847;48.830;9.116;2023-08-21T04:19:50;0.10;;;0.10;;
13552;SDS011;6847;48.830;9.116;2023-08-21T04:22:22;0.10;;;0.10;;
13552;SDS011;6847;48.830;9.116;2023-08-21T04:24:56;0.10;;;0.10;;
13552;SDS011;6847;48.830;9.116;2023-08-21T04:27:32;0.10;;;0.10;;
13552;SDS011;6847;48.830;9.116;2023-08-21T04:30:06;0.28;;;0.28;;
13552;SDS011;6847;48.830;9.116;2023-08-21T04:35:05;0.10;;;0.10;;
13552;SDS011;6847;48.830;9.116;2023-08-21T04:37:48;0.10;;;0.10;;
13552;SDS011;6847;48.830;9.116;2023-08-21T04:40:16;0.10;;;0.10;;
13552;SDS011;6847;48.830;9.116;2023-08-21T04:42:47;0.10;;;0.10;;
13552;SDS011;6847;48.830;9.116;2023-08-21T04:45:36;0.10;;;0.10;;
13552;SDS011;6847;48.830;9.116;2023-08-21T04:48:18;0.10;;;0.10;;
13552;SDS011;6847;48.830;9.116;2023-08-21T04:50:45;0.10;;;0.10;;
13552;SDS011;6847;48.830;9.116;2023-08-21T04:53:12;0.10;;;0.10;;
13552;SDS011;6847;48.830;9.116;2023-08-21T04:55:39;0.17;;;0.17;;
13552;SDS011;6847;48.830;9.116;2023-08-21T04:58:10;0.10;;;0.10;;
13552;SDS011;6847;48.830;9.116;2023-08-21T05:00:40;0.10;;;0.10;;
13552;SDS011;6847;48.830;9.116;2023-08-21T05:03:07;0.10;;;0.10;;
13552;SDS011;6847;48.830;9.116;2023-08-21T05:05:37;0.15;;;0.15;;
13552;SDS011;6847;48.830;9.116;2023-08-21T05:08:05;0.10;;;0.10;;
13552;SDS011;6847;48.830;9.116;2023-08-21T05:10:35;0.10;;;0.10;;
13552;SDS011;6847;48.830;9.116;2023-08-21T05:13:03;0.10;;;0.10;;
13552;SDS011;6847;48.830;9.116;2023-08-21T05:15:36;0.10;;;0.10;;
13552;SDS011;6847;48.830;9.116;2023-08-21T05:18:09;0.10;;;0.10;;
13552;SDS011;6847;48.830;9.116;2023-08-21T05:20:46;0.10;;;0.10;;
13552;SDS011;6847;48.830;9.116;2023-08-21T05:23:16;0.10;;;0.10;;
13552;SDS011;6847;48.830;9.116;2023-08-21T05:25:51;0.10;;;0.10;;
13552;SDS011;6847;48.830;9.116;2023-08-21T05:28:19;0.10;;;0.10;;
13552;SDS011;6847;48.830;9.116;2023-08-21T05:30:49;0.10;;;0.10;;
13552;SDS011;6847;48.830;9.116;2023-08-21T05:33:18;0.20;;;0.20;;
13552;SDS011;6847;48.830;9.116;2023-08-21T05:35:51;0.10;;;0.10;;
13552;SDS011;6847;48.830;9.116;2023-08-21T05:38:25;0.10;;;0.10;;
13552;SDS011;6847;48.830;9.116;2023-08-21T05:40:55;0.10;;;0.10;;
13552;SDS011;6847;48.830;9.116;2023-08-21T05:43:24;0.10;;;0.10;;
13552;SDS011;6847;48.830;9.116;2023-08-21T05:46:07;0.10;;;0.10;;
13552;SDS011;6847;48.830;9.116;2023-08-21T05:48:48;0.10;;;0.10;;
13552;SDS011;6847;48.830;9.116;2023-08-21T05:51:19;0.10;;;0.10;;
13552;SDS011;6847;48.830;9.116;2023-08-21T05:53:50;0.10;;;0.10;;
13552;SDS011;6847;48.830;9.116;2023-08-21T05:56:19;0.10;;;0.10;;
13552;SDS011;6847;48.830;9.116;2023-08-21T05:58:51;0.10;;;0.10;;
13552;SDS011;6847;48.830;9.116;2023-08-21T06:01:25;0.10;;;0.10;;
13552;SDS011;6847;48.830;9.116;2023-08-21T06:04:05;0.10;;;0.10;;
13552;SDS011;6847;48.830;9.116;2023-08-21T06:06:42;0.20;;;0.20;;
13552;SDS011;6847;48.830;9.116;2023-08-21T06:09:12;0.10;;;0.10;;
13552;SDS011;6847;48.830;9.116;2023-08-21T06:11:44;0.10;;;0.10;;
13552;SDS011;6847;48.830;9.116;2023-08-21T06:14:23;0.10;;;0.10;;
13552;SDS011;6847;48.830;9.116;2023-08-21T06:16:57;0.10;;;0.10;;
13552;SDS011;6847;48.830;9.116;2023-08-21T06:19:28;0.10;;;0.10;;
13552;SDS011;6847;48.830;9.116;2023-08-21T06:21:56;0.10;;;0.10;;
13552;SDS011;6847;48.830;9.116;2023-08-21T06:24:31;0.10;;;0.10;;
13552;SDS011;6847;48.830;9.116;2023-08-21T06:27:15;0.10;;;0.10;;
13552;SDS011;6847;48.830;9.116;2023-08-21T06:29:46;0.15;;;0.15;;
13552;SDS011;6847;48.830;9.116;2023-08-21T06:32:23;0.10;;;0.10;;
13552;SDS011;6847;48.830;9.116;2023-08-21T06:35:18;0.10;;;0.10;;
13552;SDS011;6847;48.830;9.116;2023-08-21T06:38:00;0.10;;;0.10;;
13552;SDS011;6847;48.830;9.116;2023-08-21T06:40:44;0.10;;;0.10;;
13552;SDS011;6847;48.830;9.116;2023-08-21T06:43:29;0.10;;;0.10;;
13552;SDS011;6847;48.830;9.116;2023-08-21T06:46:02;0.10;;;0.10;;
13552;SDS011;6847;48.830;9.116;2023-08-21T06:48:42;0.10;;;0.10;;
13552;SDS011;6847;48.830;9.116;2023-08-21T06:55:14;0.10;;;0.10;;
13552;SDS011;6847;48.830;9.116;2023-08-21T06:57:43;0.10;;;0.10;;
13552;SDS011;6847;48.830;9.116;2023-08-21T07:00:12;0.10;;;0.10;;
13552;SDS011;6847;48.830;9.116;2023-08-21T07:02:40;0.20;;;0.20;;
13552;SDS011;6847;48.830;9.116;2023-08-21T07:05:07;0.20;;;0.20;;
13552;SDS011;6847;48.830;9.116;2023-08-21T07:07:39;0.20;;;0.20;;
13552;SDS011;6847;48.830;9.116;2023-08-21T07:10:06;0.55;;;0.30;;
13552;SDS011;6847;48.830;9.116;2023-08-21T07:12:51;0.13;;;0.13;;
13552;SDS011;6847;48.830;9.116;2023-08-21T07:15:25;0.20;;;0.20;;
13552;SDS011;6847;48.830;9.116;2023-08-21T07:17:53;0.10;;;0.10;;
13552;SDS011;6847;48.830;9.116;2023-08-21T07:20:23;0.20;;;0.20;;
13552;SDS011;6847;48.830;9.116;2023-08-21T07:23:14;0.20;;;0.20;;
13552;SDS011;6847;48.830;9.116;2023-08-21T07:25:53;0.20;;;0.20;;
13552;SDS011;6847;48.830;9.116;2023-08-21T07:28:22;0.20;;;0.20;;
13552;SDS011;6847;48.830;9.116;2023-08-21T07:30:54;0.13;;;0.13;;
13552;SDS011;6847;48.830;9.116;2023-08-21T07:33:24;0.15;;;0.15;;
13552;SDS011;6847;48.830;9.116;2023-08-21T07:35:59;0.10;;;0.10;;
13552;SDS011;6847;48.830;9.116;2023-08-21T07:38:29;0.17;;;0.17;;
13552;SDS011;6847;48.830;9.116;2023-08-21T07:41:04;0.20;;;0.20;;
13552;SDS011;6847;48.830;9.116;2023-08-21T07:43:47;0.10;;;0.10;;
13552;SDS011;6847;48.830;9.116;2023-08-21T07:46:17;0.20;;;0.20;;
13552;SDS011;6847;48.830;9.116;2023-08-21T07:48:54;0.20;;;0.20;;
13552;SDS011;6847;48.830;9.116;2023-08-21T07:51:51;0.10;;;0.10;;
13552;SDS011;6847;48.830;9.116;2023-08-21T07:54:20;0.20;;;0.20;;
13552;SDS011;6847;48.830;9.116;2023-08-21T07:56:47;0.20;;;0.20;;
13552;SDS011;6847;48.830;9.116;2023-08-21T07:59:17;0.13;;;0.13;;
13552;SDS011;6847;48.830;9.116;2023-08-21T08:01:54;0.25;;;0.25;;
13552;SDS011;6847;48.830;9.116;2023-08-21T08:04:53;0.20;;;0.20;;
13552;SDS011;6847;48.830;9.116;2023-08-21T08:07:30;0.20;;;0.20;;
13552;SDS011;6847;48.830;9.116;2023-08-21T08:10:16;0.22;;;0.22;;
13552;SDS011;6847;48.830;9.116;2023-08-21T08:19:42;0.20;;;0.20;;
13552;SDS011;6847;48.830;9.116;2023-08-21T08:24:59;0.20;;;0.20;;
13552;SDS011;6847;48.830;9.116;2023-08-21T08:27:43;0.15;;;0.15;;
13552;SDS011;6847;48.830;9.116;2023-08-21T08:30:17;0.30;;;0.30;;
13552;SDS011;6847;48.830;9.116;2023-08-21T08:32:58;0.20;;;0.20;;
13552;SDS011;6847;48.830;9.116;2023-08-21T08:35:26;0.20;;;0.20;;
13552;SDS011;6847;48.830;9.116;2023-08-21T08:37:53;4.38;;;0.95;;
13552;SDS011;6847;48.830;9.116;2023-08-21T08:40:21;0.20;;;0.20;;
13552;SDS011;6847;48.830;9.116;2023-08-21T08:42:48;0.20;;;0.20;;
13552;SDS011;6847;48.830;9.116;2023-08-21T08:45:21;0.17;;;0.17;;
13552;SDS011;6847;48.830;9.116;2023-08-21T08:48:04;0.28;;;0.28;;
13552;SDS011;6847;48.830;9.116;2023-08-21T08:50:33;0.20;;;0.20;;
13552;SDS011;6847;48.830;9.116;2023-08-21T08:53:19;0.15;;;0.15;;
13552;SDS011;6847;48.830;9.116;2023-08-21T08:55:50;0.45;;;0.45;;
13552;SDS011;6847;48.830;9.116;2023-08-21T08:58:18;0.20;;;0.20;;
13552;SDS011;6847;48.830;9.116;2023-08-21T09:00:46;0.20;;;0.20;;
13552;SDS011;6847;48.830;9.116;2023-08-21T09:06:19;0.20;;;0.20;;
13552;SDS011;6847;48.830;9.116;2023-08-21T09:08:53;0.20;;;0.20;;
13552;SDS011;6847;48.830;9.116;2023-08-21T09:11:20;0.20;;;0.20;;
13552;SDS011;6847;48.830;9.116;2023-08-21T09:13:58;0.20;;;0.20;;
13552;SDS011;6847;48.830;9.116;2023-08-21T09:16:27;0.20;;;0.20;;
13552;SDS011;6847;48.830;9.116;2023-08-21T09:19:04;0.20;;;0.20;;
13552;SDS011;6847;48.830;9.116;2023-08-21T09:21:36;0.20;;;0.20;;
13552;SDS011;6847;48.830;9.116;2023-08-21T09:24:07;0.30;;;0.30;;
13552;SDS011;6847;48.830;9.116;2023-08-21T09:26:44;0.22;;;0.22;;
13552;SDS011;6847;48.830;9.116;2023-08-21T09:29:11;0.20;;;0.20;;
13552;SDS011;6847;48.830;9.116;2023-08-21T09:31:48;0.20;;;0.20;;
13552;SDS011;6847;48.830;9.116;2023-08-21T09:34:40;0.30;;;0.30;;
13552;SDS011;6847;48.830;9.116;2023-08-21T09:37:11;0.20;;;0.20;;
13552;SDS011;6847;48.830;9.116;2023-08-21T09:39:46;0.22;;;0.22;;
13552;SDS011;6847;48.830;9.116;2023-08-21T09:42:14;0.20;;;0.20;;
13552;SDS011;6847;48.830;9.116;2023-08-21T09:44:50;0.30;;;0.30;;
13552;SDS011;6847;48.830;9.116;2023-08-21T09:47:23;0.20;;;0.20;;
13552;SDS011;6847;48.830;9.116;2023-08-21T09:53:48;0.25;;;0.25;;
13552;SDS011;6847;48.830;9.116;2023-08-21T09:56:20;0.30;;;0.30;;
13552;SDS011;6847;48.830;9.116;2023-08-21T09:58:51;0.20;;;0.20;;
13552;SDS011;6847;48.830;9.116;2023-08-21T10:01:18;0.22;;;0.22;;
13552;SDS011;6847;48.830;9.116;2023-08-21T10:03:47;0.28;;;0.28;;
13552;SDS011;6847;48.830;9.116;2023-08-21T10:06:15;0.20;;;0.20;;
13552;SDS011;6847;48.830;9.116;2023-08-21T10:08:46;0.20;;;0.20;;
13552;SDS011;6847;48.830;9.116;2023-08-21T10:11:19;0.40;;;0.40;;
13552;SDS011;6847;48.830;9.116;2023-08-21T10:13:49;0.40;;;0.40;;
13552;SDS011;6847;48.830;9.116;2023-08-21T10:16:19;0.30;;;0.30;;
13552;SDS011;6847;48.830;9.116;2023-08-21T10:18:48;0.28;;;0.28;;
13552;SDS011;6847;48.830;9.116;2023-08-21T10:21:15;0.30;;;0.30;;
13552;SDS011;6847;48.830;9.116;2023-08-21T10:23:47;0.40;;;0.40;;
13552;SDS011;6847;48.830;9.116;2023-08-21T10:26:18;0.40;;;0.40;;
13552;SDS011;6847;48.830;9.116;2023-08-21T10:28:50;0.30;;;0.30;;
13552;SDS011;6847;48.830;9.116;2023-08-21T10:31:26;0.40;;;0.40;;
13552;SDS011;6847;48.830;9.116;2023-08-21T10:33:54;0.30;;;0.30;;
13552;SDS011;6847;48.830;9.116;2023-08-21T10:39:24;0.43;;;0.43;;
13552;SDS011;6847;48.830;9.116;2023-08-21T10:41:56;0.65;;;0.65;;
13552;SDS011;6847;48.830;9.116;2023-08-21T10:44:34;0.52;;;0.52;;
13552;SDS011;6847;48.830;9.116;2023-08-21T10:47:15;0.50;;;0.50;;
13552;SDS011;6847;48.830;9.116;2023-08-21T10:49:43;0.50;;;0.50;;
13552;SDS011;6847;48.830;9.116;2023-08-21T10:52:11;0.40;;;0.40;;
13552;SDS011;6847;48.830;9.116;2023-08-21T10:54:45;0.40;;;0.40;;
13552;SDS011;6847;48.830;9.116;2023-08-21T10:57:14;0.43;;;0.43;;
13552;SDS011;6847;48.830;9.116;2023-08-21T10:59:52;0.50;;;0.50;;
13552;SDS011;6847;48.830;9.116;2023-08-21T11:02:23;0.40;;;0.40;;
13552;SDS011;6847;48.830;9.116;2023-08-21T11:04:51;0.60;;;0.60;;
13552;SDS011;6847;48.830;9.116;2023-08-21T11:07:19;0.55;;;0.55;;
13552;SDS011;6847;48.830;9.116;2023-08-21T11:09:48;0.40;;;0.40;;
13552;SDS011;6847;48.830;9.116;2023-08-21T11:12:16;0.47;;;0.47;;
13552;SDS011;6847;48.830;9.116;2023-08-21T11:14:44;0.50;;;0.50;;
13552;SDS011;6847;48.830;9.116;2023-08-21T11:17:12;0.55;;;0.55;;
13552;SDS011;6847;48.830;9.116;2023-08-21T11:19:41;0.60;;;0.60;;
13552;SDS011;6847;48.830;9.116;2023-08-21T11:22:10;0.50;;;0.50;;
13552;SDS011;6847;48.830;9.116;2023-08-21T11:24:43;0.40;;;0.40;;
13552;SDS011;6847;48.830;9.116;2023-08-21T11:27:19;0.52;;;0.52;;
13552;SDS011;6847;48.830;9.116;2023-08-21T11:29:47;0.45;;;0.45;;
13552;SDS011;6847;48.830;9.116;2023-08-21T11:32:16;0.40;;;0.40;;
13552;SDS011;6847;48.830;9.116;2023-08-21T11:34:47;0.43;;;0.43;;
13552;SDS011;6847;48.830;9.116;2023-08-21T11:37:16;0.50;;;0.50;;
13552;SDS011;6847;48.830;9.116;2023-08-21T11:39:44;0.55;;;0.55;;
13552;SDS011;6847;48.830;9.116;2023-08-21T11:42:14;0.50;;;0.50;;
13552;SDS011;6847;48.830;9.116;2023-08-21T11:44:47;0.30;;;0.30;;
13552;SDS011;6847;48.830;9.116;2023-08-21T11:47:19;0.40;;;0.40;;
13552;SDS011;6847;48.830;9.116;2023-08-21T11:49:47;0.60;;;0.60;;
13552;SDS011;6847;48.830;9.116;2023-08-21T11:52:17;0.50;;;0.50;;
13552;SDS011;6847;48.830;9.116;2023-08-21T11:54:47;0.38;;;0.38;;
13552;SDS011;6847;48.830;9.116;2023-08-21T11:57:15;0.40;;;0.40;;
13552;SDS011;6847;48.830;9.116;2023-08-21T11:59:48;0.50;;;0.50;;
13552;SDS011;6847;48.830;9.116;2023-08-21T12:02:18;0.57;;;0.57;;
13552;SDS011;6847;48.830;9.116;2023-08-21T12:04:45;0.40;;;0.40;;
13552;SDS011;6847;48.830;9.116;2023-08-21T12:07:18;0.47;;;0.47;;
13552;SDS011;6847;48.830;9.116;2023-08-21T12:09:46;0.30;;;0.30;;
13552;SDS011;6847;48.830;9.116;2023-08-21T12:12:14;0.35;;;0.35;;
13552;SDS011;6847;48.830;9.116;2023-08-21T12:14:41;0.40;;;0.40;;
13552;SDS011;6847;48.830;9.116;2023-08-21T12:17:11;0.30;;;0.30;;
13552;SDS011;6847;48.830;9.116;2023-08-21T12:19:39;0.40;;;0.40;;
13552;SDS011;6847;48.830;9.116;2023-08-21T12:22:11;0.40;;;0.40;;
13552;SDS011;6847;48.830;9.116;2023-08-21T12:24:38;0.55;;;0.55;;
13552;SDS011;6847;48.830;9.116;2023-08-21T12:27:05;0.50;;;0.50;;
13552;SDS011;6847;48.830;9.116;2023-08-21T12:29:33;0.32;;;0.32;;
13552;SDS011;6847;48.830;9.116;2023-08-21T12:32:01;0.50;;;0.50;;
13552;SDS011;6847;48.830;9.116;2023-08-21T12:34:29;0.55;;;0.55;;
13552;SDS011;6847;48.830;9.116;2023-08-21T12:36:56;0.40;;;0.40;;
13552;SDS011;6847;48.830;9.116;2023-08-21T12:39:23;0.70;;;0.70;;
13552;SDS011;6847;48.830;9.116;2023-08-21T12:41:51;0.60;;;0.60;;
13552;SDS011;6847;48.830;9.116;2023-08-21T12:44:18;0.50;;;0.50;;
13552;SDS011;6847;48.830;9.116;2023-08-21T12:46:45;0.60;;;0.60;;
13552;SDS011;6847;48.830;9.116;2023-08-21T12:49:13;0.70;;;0.70;;
13552;SDS011;6847;48.830;9.116;2023-08-21T12:51:44;0.98;;;0.98;;
13552;SDS011;6847;48.830;9.116;2023-08-21T12:54:13;0.60;;;0.60;;
13552;SDS011;6847;48.830;9.116;2023-08-21T12:56:41;0.90;;;0.90;;
13552;SDS011;6847;48.830;9.116;2023-08-21T12:59:07;0.70;;;0.70;;
13552;SDS011;6847;48.830;9.116;2023-08-21T13:01:34;0.77;;;0.77;;
13552;SDS011;6847;48.830;9.116;2023-08-21T13:04:03;0.98;;;0.98;;
13552;SDS011;6847;48.830;9.116;2023-08-21T13:06:30;0.73;;;0.73;;
13552;SDS011;6847;48.830;9.116;2023-08-21T13:09:03;0.80;;;0.80;;
13552;SDS011;6847;48.830;9.116;2023-08-21T13:11:31;0.97;;;0.97;;
13552;SDS011;6847;48.830;9.116;2023-08-21T13:14:00;0.50;;;0.50;;
13552;SDS011;6847;48.830;9.116;2023-08-21T13:16:27;0.50;;;0.50;;
13552;SDS011;6847;48.830;9.116;2023-08-21T13:18:53;0.60;;;0.60;;
13552;SDS011;6847;48.830;9.116;2023-08-21T13:21:20;0.50;;;0.50;;
13552;SDS011;6847;48.830;9.116;2023-08-21T13:23:47;0.50;;;0.50;;
13552;SDS011;6847;48.830;9.116;2023-08-21T13:26:15;0.40;;;0.40;;
13552;SDS011;6847;48.830;9.116;2023-08-21T13:28:41;0.50;;;0.50;;
13552;SDS011;6847;48.830;9.116;2023-08-21T13:31:09;0.55;;;0.55;;
13552;SDS011;6847;48.830;9.116;2023-08-21T13:33:43;0.55;;;0.55;;
13552;SDS011;6847;48.830;9.116;2023-08-21T13:36:10;0.60;;;0.60;;
13552;SDS011;6847;48.830;9.116;2023-08-21T13:38:37;0.50;;;0.50;;
13552;SDS011;6847;48.830;9.116;2023-08-21T13:41:04;0.40;;;0.40;;
13552;SDS011;6847;48.830;9.116;2023-08-21T13:43:33;0.40;;;0.40;;
13552;SDS011;6847;48.830;9.116;2023-08-21T13:46:00;0.40;;;0.40;;
13552;SDS011;6847;48.830;9.116;2023-08-21T13:48:30;0.47;;;0.47;;
13552;SDS011;6847;48.830;9.116;2023-08-21T13:50:59;0.40;;;0.40;;
13552;SDS011;6847;48.830;9.116;2023-08-21T13:53:28;0.60;;;0.60;;
13552;SDS011;6847;48.830;9.116;2023-08-21T13:55:58;0.50;;;0.50;;
13552;SDS011;6847;48.830;9.116;2023-08-21T13:58:25;0.40;;;0.40;;
13552;SDS011;6847;48.830;9.116;2023-08-21T14:00:54;0.50;;;0.50;;
13552;SDS011;6847;48.830;9.116;2023-08-21T14:03:22;0.60;;;0.60;;
13552;SDS011;6847;48.830;9.116;2023-08-21T14:05:50;0.50;;;0.50;;
13552;SDS011;6847;48.830;9.116;2023-08-21T14:08:19;0.50;;;0.50;;
13552;SDS011;6847;48.830;9.116;2023-08-21T14:10:46;0.47;;;0.47;;
13552;SDS011;6847;48.830;9.116;2023-08-21T14:13:14;0.55;;;0.55;;
13552;SDS011;6847;48.830;9.116;2023-08-21T14:15:42;0.50;;;0.50;;
13552;SDS011;6847;48.830;9.116;2023-08-21T14:18:10;0.52;;;0.52;;
13552;SDS011;6847;48.830;9.116;2023-08-21T14:20:37;0.50;;;0.50;;
13552;SDS011;6847;48.830;9.116;2023-08-21T14:23:04;0.30;;;0.30;;
13552;SDS011;6847;48.830;9.116;2023-08-21T14:25:33;0.60;;;0.60;;
13552;SDS011;6847;48.830;9.116;2023-08-21T14:28:00;0.50;;;0.50;;
13552;SDS011;6847;48.830;9.116;2023-08-21T14:30:26;0.57;;;0.57;;
13552;SDS011;6847;48.830;9.116;2023-08-21T14:32:54;0.50;;;0.50;;
13552;SDS011;6847;48.830;9.116;2023-08-21T14:35:22;0.40;;;0.40;;
13552;SDS011;6847;48.830;9.116;2023-08-21T14:37:49;0.60;;;0.60;;
13552;SDS011;6847;48.830;9.116;2023-08-21T14:40:15;0.63;;;0.63;;
13552;SDS011;6847;48.830;9.116;2023-08-21T14:42:42;0.60;;;0.60;;
13552;SDS011;6847;48.830;9.116;2023-08-21T14:45:10;0.52;;;0.52;;
13552;SDS011;6847;48.830;9.116;2023-08-21T14:47:37;0.80;;;0.80;;
13552;SDS011;6847;48.830;9.116;2023-08-21T14:50:04;0.52;;;0.52;;
13552;SDS011;6847;48.830;9.116;2023-08-21T14:52:33;0.52;;;0.52;;
13552;SDS011;6847;48.830;9.116;2023-08-21T14:55:03;0.30;;;0.30;;
13552;SDS011;6847;48.830;9.116;2023-08-21T14:57:30;0.40;;;0.40;;
13552;SDS011;6847;48.830;9.116;2023-08-21T14:59:57;0.60;;;0.60;;
13552;SDS011;6847;48.830;9.116;2023-08-21T15:02:23;0.50;;;0.50;;
13552;SDS011;6847;48.830;9.116;2023-08-21T15:04:50;0.50;;;0.50;;
13552;SDS011;6847;48.830;9.116;2023-08-21T15:07:19;0.55;;;0.55;;
13552;SDS011;6847;48.830;9.116;2023-08-21T15:09:47;0.50;;;0.50;;
13552;SDS011;6847;48.830;9.116;2023-08-21T15:12:14;0.73;;;0.73;;
13552;SDS011;6847;48.830;9.116;2023-08-21T15:14:41;0.60;;;0.60;;
13552;SDS011;6847;48.830;9.116;2023-08-21T15:17:08;0.55;;;0.55;;
13552;SDS011;6847;48.830;9.116;2023-08-21T15:19:35;0.80;;;0.80;;
13552;SDS011;6847;48.830;9.116;2023-08-21T15:22:02;0.77;;;0.77;;
13552;SDS011;6847;48.830;9.116;2023-08-21T15:24:28;0.88;;;0.88;;
13552;SDS011;6847;48.830;9.116;2023-08-21T15:26:56;0.70;;;0.70;;
13552;SDS011;6847;48.830;9.116;2023-08-21T15:29:23;0.65;;;0.65;;
13552;SDS011;6847;48.830;9.116;2023-08-21T15:31:50;0.68;;;0.68;;
13552;SDS011;6847;48.830;9.116;2023-08-21T15:34:18;0.93;;;0.93;;
13552;SDS011;6847;48.830;9.116;2023-08-21T15:36:44;0.75;;;0.75;;
13552;SDS011;6847;48.830;9.116;2023-08-21T15:39:11;0.70;;;0.70;;
13552;SDS011;6847;48.830;9.116;2023-08-21T15:41:38;0.80;;;0.80;;
13552;SDS011;6847;48.830;9.116;2023-08-21T15:44:09;0.93;;;0.93;;
13552;SDS011;6847;48.830;9.116;2023-08-21T15:46:38;1.02;;;1.02;;
13552;SDS011;6847;48.830;9.116;2023-08-21T15:49:05;1.02;;;1.02;;
13552;SDS011;6847;48.830;9.116;2023-08-21T15:54:03;1.08;;;1.08;;
13552;SDS011;6847;48.830;9.116;2023-08-21T15:56:30;0.50;;;0.50;;
13552;SDS011;6847;48.830;9.116;2023-08-21T15:58:59;0.60;;;0.60;;